createdAt,value
2018-03-19T00:02:15.662Z,62.40
2018-03-19T00:04:52.171Z,62.00
2018-03-19T00:07:30.379Z,62.00
2018-03-19T00:10:06.877Z,62.30
2018-03-19T00:12:44.145Z,62.50
2018-03-19T00:15:20.865Z,62.80
2018-03-19T00:18:00.013Z,62.80
2018-03-19T00:20:36.189Z,62.70
2018-03-19T00:23:11.723Z,62.80
2018-03-19T00:25:46.843Z,62.80
2018-03-19T00:28:22.247Z,62.60
2018-03-19T00:31:00.769Z,62.40
2018-03-19T00:33:37.224Z,62.80
2018-03-19T00:36:13.658Z,62.80
2018-03-19T00:38:50.419Z,62.80
2018-03-19T00:41:26.850Z,62.60
2018-03-19T00:44:02.549Z,62.60
2018-03-19T00:46:39.202Z,62.80
2018-03-19T00:49:15.719Z,63.00
2018-03-19T00:51:50.408Z,62.80
2018-03-19T00:54:26.982Z,62.80
2018-03-19T00:57:06.692Z,63.10
2018-03-19T00:59:43.337Z,63.30
2018-03-19T01:02:20.249Z,63.50
2018-03-19T01:04:58.084Z,63.70
2018-03-19T01:07:33.503Z,64.40
2018-03-19T01:10:10.624Z,63.50
2018-03-19T01:12:47.018Z,63.50
2018-03-19T01:15:24.591Z,63.40
2018-03-19T01:18:01.777Z,63.50
2018-03-19T01:20:39.590Z,63.50
2018-03-19T01:23:16.058Z,63.10
2018-03-19T01:25:51.736Z,63.00
2018-03-19T01:28:30.477Z,63.20
2018-03-19T01:31:08.520Z,63.20
2018-03-19T01:33:45.268Z,62.90
2018-03-19T01:36:20.911Z,63.20
2018-03-19T01:38:58.043Z,63.30
2018-03-19T01:41:34.492Z,63.40
2018-03-19T01:44:16.975Z,63.30
2018-03-19T01:46:55.889Z,63.10
2018-03-19T01:49:32.790Z,62.80
2018-03-19T01:52:10.037Z,62.90
2018-03-19T01:54:47.644Z,63.10
2018-03-19T01:57:24.676Z,63.10
2018-03-19T02:00:07.992Z,63.30
2018-03-19T02:02:47.944Z,63.40
2018-03-19T02:05:23.227Z,63.50
2018-03-19T02:07:59.528Z,63.50
2018-03-19T02:10:37.685Z,63.50
2018-03-19T02:13:15.055Z,63.30
2018-03-19T02:15:53.273Z,63.30
2018-03-19T02:18:31.502Z,63.30
2018-03-19T02:21:09.950Z,63.10
2018-03-19T02:23:47.443Z,63.10
2018-03-19T02:26:24.161Z,63.40
2018-03-19T02:29:06.037Z,63.00
2018-03-19T02:31:44.419Z,62.40
2018-03-19T02:34:23.680Z,62.50
2018-03-19T02:36:58.942Z,62.60
2018-03-19T02:39:34.034Z,62.40
2018-03-19T02:42:11.874Z,62.40
2018-03-19T02:44:48.406Z,62.80
2018-03-19T02:47:26.296Z,62.90
2018-03-19T02:50:01.137Z,62.80
2018-03-19T02:52:36.485Z,62.60
2018-03-19T02:55:11.266Z,62.80
2018-03-19T02:57:46.309Z,63.20
2018-03-19T03:00:21.713Z,63.70
2018-03-19T03:02:58.928Z,63.70
2018-03-19T03:05:35.091Z,64.10
2018-03-19T03:08:11.778Z,64.10
2018-03-19T03:10:48.002Z,64.10
2018-03-19T03:13:24.158Z,64.10
2018-03-19T03:16:00.309Z,64.30
2018-03-19T03:18:38.533Z,64.20
2018-03-19T03:21:14.765Z,64.50
2018-03-19T03:23:53.080Z,64.30
2018-03-19T03:26:30.556Z,64.80
2018-03-19T03:29:05.728Z,64.40
2018-03-19T03:31:41.447Z,64.60
2018-03-19T03:34:20.100Z,64.80
2018-03-19T03:36:56.229Z,64.90
2018-03-19T03:39:31.870Z,64.70
2018-03-19T03:42:08.136Z,64.80
2018-03-19T03:44:43.800Z,65.20
2018-03-19T03:47:18.901Z,65.50
2018-03-19T03:49:54.992Z,65.40
2018-03-19T03:52:29.864Z,65.40
2018-03-19T03:55:06.270Z,65.30
2018-03-19T03:57:47.739Z,65.40
2018-03-19T04:00:25.268Z,65.60
2018-03-19T04:03:05.087Z,65.60
2018-03-19T04:05:43.064Z,65.90
2018-03-19T04:08:23.214Z,65.80
2018-03-19T04:11:00.335Z,65.90
2018-03-19T04:13:35.205Z,66.50
2018-03-19T04:16:12.326Z,66.10
2018-03-19T04:18:48.159Z,65.90
2018-03-19T04:21:23.308Z,65.90
2018-03-19T04:23:59.486Z,65.90
2018-03-19T04:26:37.453Z,65.50
2018-03-19T04:29:14.213Z,65.50
2018-03-19T04:31:50.509Z,66.10
2018-03-19T04:34:25.818Z,65.80
2018-03-19T04:37:02.993Z,66.10
2018-03-19T04:39:43.388Z,66.40
2018-03-19T04:42:20.291Z,66.70
2018-03-19T04:44:58.209Z,66.00
2018-03-19T04:47:33.261Z,66.00
2018-03-19T04:50:09.237Z,65.70
2018-03-19T04:52:45.390Z,65.70
2018-03-19T04:55:21.985Z,65.90
2018-03-19T04:57:58.085Z,66.50
2018-03-19T05:00:34.356Z,66.40
2018-03-19T05:03:13.641Z,66.80
2018-03-19T05:05:48.807Z,66.70
2018-03-19T05:08:31.614Z,66.70
2018-03-19T05:11:07.872Z,66.30
2018-03-19T05:13:43.460Z,66.80
2018-03-19T05:16:22.168Z,66.40
2018-03-19T05:18:58.528Z,66.90
2018-03-19T05:21:36.963Z,66.90
2018-03-19T05:24:13.100Z,67.60
2018-03-19T05:26:50.858Z,67.10
2018-03-19T05:29:27.940Z,67.00
2018-03-19T05:32:03.344Z,66.70
2018-03-19T05:34:40.100Z,67.40
2018-03-19T05:37:16.995Z,68.10
2018-03-19T05:40:00.147Z,68.50
2018-03-19T05:42:36.986Z,69.50
2018-03-19T05:45:14.788Z,68.90
2018-03-19T05:47:58.324Z,69.00
2018-03-19T05:50:34.390Z,69.00
2018-03-19T05:53:09.758Z,69.00
2018-03-19T05:55:47.464Z,69.00
2018-03-19T05:58:25.511Z,69.20
2018-03-19T06:01:02.766Z,69.40
2018-03-19T06:03:36.956Z,69.40
2018-03-19T06:06:13.237Z,69.70
2018-03-19T06:08:48.500Z,70.00
2018-03-19T06:11:24.631Z,69.50
2018-03-19T06:14:00.420Z,69.80
2018-03-19T06:16:37.055Z,69.30
2018-03-19T06:19:15.005Z,69.30
2018-03-19T06:21:57.429Z,69.00
2018-03-19T06:24:32.681Z,69.00
2018-03-19T06:27:09.725Z,68.90
2018-03-19T06:29:52.438Z,68.80
2018-03-19T06:32:28.755Z,67.40
2018-03-19T06:35:06.888Z,68.00
2018-03-19T06:37:42.997Z,68.20
2018-03-19T06:40:18.398Z,68.30
2018-03-19T06:42:55.979Z,67.10
2018-03-19T06:45:32.993Z,67.00
2018-03-19T06:48:11.776Z,66.20
2018-03-19T06:50:50.245Z,66.20
2018-03-19T06:53:29.612Z,65.40
2018-03-19T06:56:04.901Z,65.30
2018-03-19T06:58:44.012Z,63.90
2018-03-19T07:01:19.992Z,62.70
2018-03-19T07:03:57.299Z,62.30
2018-03-19T07:06:32.453Z,62.20
2018-03-19T07:09:09.129Z,61.30
2018-03-19T07:11:44.333Z,62.10
2018-03-19T07:14:21.883Z,59.50
2018-03-19T07:17:04.246Z,59.50
2018-03-19T07:19:43.037Z,57.50
2018-03-19T07:22:21.431Z,57.20
2018-03-19T07:24:58.275Z,57.20
2018-03-19T07:27:34.947Z,57.30
2018-03-19T07:30:12.133Z,57.40
2018-03-19T07:32:48.369Z,58.00
2018-03-19T07:35:25.186Z,57.50
2018-03-19T07:38:00.437Z,57.50
2018-03-19T07:40:36.354Z,57.60
2018-03-19T07:43:20.071Z,59.60
2018-03-19T07:45:56.983Z,59.60
2018-03-19T07:48:34.477Z,61.90
2018-03-19T07:51:10.457Z,61.60
2018-03-19T07:53:47.801Z,61.60
2018-03-19T07:56:24.193Z,60.70
2018-03-19T07:59:03.579Z,61.50
2018-03-19T08:01:38.829Z,60.60
2018-03-19T08:04:16.558Z,59.20
2018-03-19T08:06:53.133Z,59.20
2018-03-19T08:09:36.714Z,59.00
2018-03-19T08:12:13.589Z,59.40
2018-03-19T08:14:51.530Z,58.30
2018-03-19T08:17:29.540Z,56.90
2018-03-19T08:20:07.792Z,55.50
2018-03-19T08:22:44.381Z,55.00
2018-03-19T08:25:21.255Z,55.10
2018-03-19T08:28:00.444Z,55.80
2018-03-19T08:30:42.001Z,57.10
2018-03-19T08:33:18.498Z,55.30
2018-03-19T08:35:54.990Z,55.30
2018-03-19T08:38:32.597Z,55.70
2018-03-19T08:41:09.725Z,55.50
2018-03-19T08:43:48.600Z,54.90
2018-03-19T08:46:26.053Z,54.90
2018-03-19T08:49:05.453Z,54.20
2018-03-19T08:51:44.728Z,52.50
2018-03-19T08:54:21.996Z,54.20
2018-03-19T08:56:59.604Z,54.70
2018-03-19T08:59:42.267Z,53.50
2018-03-19T09:02:18.472Z,53.70
2018-03-19T09:04:57.688Z,53.40
2018-03-19T09:07:36.501Z,53.20
2018-03-19T09:10:08.474Z,53.20
2018-03-19T09:12:45.156Z,52.20
2018-03-19T09:15:28.264Z,52.30
2018-03-19T09:18:07.817Z,53.40
2018-03-19T09:20:47.778Z,52.70
2018-03-19T09:23:25.259Z,50.20
2018-03-19T09:26:03.132Z,45.60
2018-03-19T09:28:40.980Z,44.60
2018-03-19T09:31:25.318Z,44.60
2018-03-19T09:34:01.412Z,42.00
2018-03-19T09:36:38.212Z,42.00
2018-03-19T09:39:16.971Z,45.80
2018-03-19T09:41:58.823Z,41.40
2018-03-19T09:44:34.736Z,41.30
2018-03-19T09:47:13.671Z,42.30
2018-03-19T09:49:50.986Z,42.30
2018-03-19T09:52:26.880Z,42.30
2018-03-19T09:55:05.268Z,48.20
2018-03-19T09:57:43.710Z,48.20
2018-03-19T10:00:23.168Z,47.20
2018-03-19T10:03:01.362Z,48.30
2018-03-19T10:05:38.018Z,48.30
2018-03-19T10:08:20.855Z,47.30
2018-03-19T10:10:56.687Z,47.30
2018-03-19T10:13:39.501Z,48.50
2018-03-19T10:16:18.070Z,47.40
2018-03-19T10:18:55.727Z,47.30
2018-03-19T10:21:33.974Z,44.20
2018-03-19T10:24:12.244Z,44.20
2018-03-19T10:26:52.010Z,46.90
2018-03-19T10:29:28.643Z,46.90
2018-03-19T10:32:07.394Z,46.70
2018-03-19T10:34:46.977Z,42.90
2018-03-19T10:37:24.287Z,42.50
2018-03-19T10:40:01.728Z,42.50
2018-03-19T10:42:41.378Z,46.30
2018-03-19T10:45:18.285Z,46.00
2018-03-19T10:47:54.122Z,42.60
2018-03-19T10:50:30.136Z,40.40
2018-03-19T10:53:07.199Z,45.50
2018-03-19T10:55:45.097Z,42.40
2018-03-19T10:58:15.277Z,42.30
2018-03-19T11:00:53.103Z,42.10
2018-03-19T11:03:39.932Z,43.40
2018-03-19T11:06:15.633Z,45.60
2018-03-19T11:08:52.833Z,44.20
2018-03-19T11:11:30.344Z,44.00
2018-03-19T11:14:06.313Z,41.20
2018-03-19T11:16:43.036Z,41.70
2018-03-19T11:19:19.793Z,41.60
2018-03-19T11:21:57.076Z,40.80
2018-03-19T11:24:36.828Z,43.50
2018-03-19T11:27:16.680Z,42.70
2018-03-19T11:29:56.430Z,42.40
2018-03-19T11:32:31.647Z,44.00
2018-03-19T11:35:09.838Z,38.70
2018-03-19T11:37:49.114Z,38.90
2018-03-19T11:40:27.872Z,38.90
2018-03-19T11:43:05.147Z,39.30
2018-03-19T11:45:48.401Z,37.80
2018-03-19T11:48:25.162Z,40.10
2018-03-19T11:51:01.168Z,40.10
2018-03-19T11:53:37.282Z,36.00
2018-03-19T11:56:13.835Z,36.30
2018-03-19T11:58:56.776Z,36.80
2018-03-19T12:01:32.383Z,38.10
2018-03-19T12:04:09.912Z,36.10
2018-03-19T12:06:55.315Z,35.70
2018-03-19T12:09:25.409Z,34.20
2018-03-19T12:12:02.513Z,34.10
2018-03-19T12:14:41.524Z,34.90
2018-03-19T12:17:18.913Z,35.00
2018-03-19T12:19:54.456Z,36.20
2018-03-19T12:22:30.472Z,35.10
2018-03-19T12:25:08.306Z,35.80
2018-03-19T12:27:43.548Z,37.10
2018-03-19T12:30:19.568Z,38.20
2018-03-19T12:32:56.388Z,36.10
2018-03-19T12:35:35.216Z,38.80
2018-03-19T12:38:13.499Z,39.90
2018-03-19T12:40:49.458Z,39.60
2018-03-19T12:43:26.314Z,40.30
2018-03-19T12:46:02.128Z,39.80
2018-03-19T12:48:40.603Z,35.10
2018-03-19T12:51:16.550Z,35.10
2018-03-19T12:53:52.489Z,37.20
2018-03-19T12:56:31.035Z,36.00
2018-03-19T12:59:10.580Z,35.90
2018-03-19T13:01:47.603Z,35.90
2018-03-19T13:04:27.955Z,35.90
2018-03-19T13:07:07.617Z,34.10
2018-03-19T13:09:46.555Z,34.10
2018-03-19T13:12:24.159Z,33.90
2018-03-19T13:15:01.339Z,34.40
2018-03-19T13:43:03.191Z,36.10
2018-03-19T13:45:40.173Z,36.10
2018-03-19T13:48:19.372Z,36.10
2018-03-19T13:50:57.090Z,36.30
2018-03-19T13:53:35.926Z,36.90
2018-03-19T13:56:12.828Z,38.80
2018-03-19T13:58:55.686Z,36.70
2018-03-19T14:01:32.499Z,37.40
2018-03-19T14:04:10.996Z,39.30
2018-03-19T14:06:48.389Z,39.00
2018-03-19T14:09:27.308Z,37.90
2018-03-19T14:12:07.800Z,34.50
2018-03-19T14:14:45.865Z,33.70
2018-03-19T14:17:22.002Z,32.20
2018-03-19T14:19:58.852Z,38.00
2018-03-19T14:22:35.808Z,38.00
2018-03-19T14:25:13.128Z,35.90
2018-03-19T14:27:55.722Z,33.30
2018-03-19T14:30:32.271Z,34.50
2018-03-19T14:33:08.378Z,34.20
2018-03-19T14:35:46.344Z,35.00
2018-03-19T14:38:24.298Z,35.00
2018-03-19T14:41:01.226Z,33.60
2018-03-19T14:43:37.718Z,34.50
2018-03-19T14:46:15.907Z,32.70
2018-03-19T14:48:53.345Z,33.40
2018-03-19T14:51:29.320Z,35.80
2018-03-19T14:54:11.092Z,35.00
2018-03-19T14:56:47.733Z,35.40
2018-03-19T14:59:26.311Z,35.40
2018-03-19T15:02:02.879Z,36.90
2018-03-19T15:04:38.014Z,38.80
2018-03-19T15:07:13.775Z,38.00
2018-03-19T15:09:52.102Z,37.70
2018-03-19T15:12:29.451Z,36.10
2018-03-19T15:15:07.707Z,38.60
2018-03-19T15:17:44.586Z,38.40
2018-03-19T15:20:22.656Z,39.40
2018-03-19T15:22:59.444Z,39.20
2018-03-19T15:25:38.843Z,38.80
2018-03-19T15:28:16.549Z,38.30
2018-03-19T15:30:56.275Z,38.20
2018-03-19T15:33:37.572Z,40.40
2018-03-19T15:36:17.238Z,40.40
2018-03-19T15:38:52.861Z,43.20
2018-03-19T15:41:30.641Z,45.70
2018-03-19T15:44:09.053Z,45.20
2018-03-19T15:46:47.606Z,45.30
2018-03-19T15:49:24.342Z,45.20
2018-03-19T15:52:00.673Z,45.60
2018-03-19T15:54:38.229Z,45.60
2018-03-19T15:57:15.608Z,46.30
2018-03-19T15:59:54.005Z,46.40
2018-03-19T16:02:33.561Z,46.90
2018-03-19T16:05:11.196Z,47.20
2018-03-19T16:07:50.278Z,47.20
2018-03-19T16:10:26.638Z,46.90
2018-03-19T16:13:03.505Z,47.80
2018-03-19T16:15:39.962Z,47.80
2018-03-19T16:18:16.113Z,48.40
2018-03-19T16:20:52.044Z,48.90
2018-03-19T16:23:33.228Z,48.40
2018-03-19T16:26:12.136Z,48.80
2018-03-19T16:28:48.324Z,49.60
2018-03-19T16:31:24.207Z,49.20
2018-03-19T16:34:02.075Z,49.40
2018-03-19T16:36:41.311Z,49.70
2018-03-19T16:39:17.294Z,48.80
2018-03-19T16:41:47.094Z,48.70
2018-03-19T16:44:23.032Z,49.50
2018-03-19T16:46:58.943Z,49.20
2018-03-19T16:49:37.872Z,49.50
2018-03-19T16:52:14.347Z,49.50
2018-03-19T16:54:51.380Z,49.40
2018-03-19T16:57:30.911Z,49.80
2018-03-19T17:00:08.814Z,50.20
2018-03-19T17:02:48.198Z,50.40
2018-03-19T17:05:25.388Z,50.60
2018-03-19T17:08:02.917Z,51.00
2018-03-19T17:10:40.201Z,51.90
2018-03-19T17:13:19.723Z,52.30
2018-03-19T17:15:55.834Z,51.70
2018-03-19T17:18:32.468Z,51.40
2018-03-19T17:21:08.330Z,51.40
2018-03-19T17:23:46.153Z,51.90
2018-03-19T17:26:24.190Z,51.60
2018-03-19T17:29:00.862Z,51.90
2018-03-19T17:31:46.902Z,52.20
2018-03-19T17:34:23.964Z,52.20
2018-03-19T17:37:00.637Z,52.40
2018-03-19T17:39:37.897Z,52.70
2018-03-19T17:42:21.138Z,52.90
2018-03-19T17:44:58.923Z,52.80
2018-03-19T17:47:38.230Z,52.60
2018-03-19T17:50:14.276Z,52.70
2018-03-19T17:52:52.442Z,52.00
2018-03-19T17:55:29.814Z,52.00
2018-03-19T17:58:05.485Z,52.00
2018-03-19T18:00:43.564Z,52.10
2018-03-19T18:03:21.925Z,52.10
2018-03-19T18:06:00.875Z,51.40
2018-03-19T18:08:36.529Z,51.10
2018-03-19T18:11:15.803Z,50.90
2018-03-19T18:13:53.596Z,50.90
2018-03-19T18:16:36.831Z,50.80
2018-03-19T18:19:14.324Z,50.70
2018-03-19T18:21:51.467Z,50.60
2018-03-19T18:24:28.455Z,49.70
2018-03-19T18:27:04.522Z,49.60
2018-03-19T18:29:43.111Z,49.40
2018-03-19T18:32:19.435Z,49.30
2018-03-19T18:34:56.603Z,49.60
2018-03-19T18:37:35.427Z,49.60
2018-03-19T18:40:17.696Z,49.10
2018-03-19T18:42:55.221Z,49.00
2018-03-19T18:45:33.018Z,48.60
2018-03-19T18:48:11.513Z,49.10
2018-03-19T18:50:48.415Z,49.10
2018-03-19T18:53:24.498Z,48.60
2018-03-19T18:56:01.756Z,48.60
2018-03-19T18:58:38.683Z,48.80
2018-03-19T19:01:14.241Z,49.30
2018-03-19T19:03:49.986Z,49.70
2018-03-19T19:06:27.141Z,50.30
2018-03-19T19:09:04.357Z,50.20
2018-03-19T19:11:47.759Z,50.20
2018-03-19T19:14:23.612Z,50.00
2018-03-19T19:17:00.496Z,51.30
2018-03-19T19:19:36.636Z,50.70
2018-03-19T19:22:13.842Z,49.50
2018-03-19T19:24:49.225Z,49.70
2018-03-19T19:27:26.497Z,49.60
2018-03-19T19:30:05.654Z,49.80
2018-03-19T19:32:43.359Z,49.60
2018-03-19T19:35:22.052Z,49.20
2018-03-19T19:37:57.710Z,49.20
2018-03-19T19:40:34.729Z,49.10
2018-03-19T19:43:10.955Z,49.60
2018-03-19T19:45:46.656Z,49.20
2018-03-19T19:48:25.177Z,48.80
2018-03-19T19:51:02.371Z,49.00
2018-03-19T19:53:40.606Z,48.30
2018-03-19T19:56:17.829Z,48.40
2018-03-19T19:58:57.672Z,48.50
2018-03-19T20:01:35.432Z,48.40
2018-03-19T20:04:12.372Z,48.40
2018-03-19T20:06:51.592Z,48.50
2018-03-19T20:09:30.437Z,48.80
2018-03-19T20:12:05.882Z,48.50
2018-03-19T20:14:42.972Z,49.10
2018-03-19T20:17:18.625Z,47.90
2018-03-19T20:19:54.787Z,48.00
2018-03-19T20:22:30.758Z,48.20
2018-03-19T20:25:08.149Z,48.30
2018-03-19T20:27:49.874Z,48.10
2018-03-19T20:30:26.214Z,48.80
2018-03-19T20:33:02.856Z,48.80
2018-03-19T20:35:40.361Z,48.40
2018-03-19T20:38:18.275Z,48.20
2018-03-19T20:40:54.918Z,48.60
2018-03-19T20:43:30.053Z,48.60
2018-03-19T20:46:07.353Z,49.20
2018-03-19T20:48:44.777Z,49.40
2018-03-19T20:51:22.326Z,50.00
2018-03-19T20:53:57.637Z,50.10
2018-03-19T20:56:35.188Z,50.00
2018-03-19T20:59:10.861Z,50.30
2018-03-19T21:01:48.375Z,50.80
2018-03-19T21:04:26.143Z,50.80
2018-03-19T21:07:04.833Z,51.00
2018-03-19T21:09:40.672Z,51.20
2018-03-19T21:12:18.440Z,51.50
2018-03-19T21:14:56.617Z,51.50
2018-03-19T21:17:32.089Z,51.90
2018-03-19T21:20:09.487Z,52.30
2018-03-19T21:22:46.198Z,52.30
2018-03-19T21:25:29.121Z,52.40
2018-03-19T21:28:05.206Z,52.50
2018-03-19T21:30:40.464Z,52.60
2018-03-19T21:33:19.187Z,52.80
2018-03-19T21:35:56.957Z,53.10
2018-03-19T21:38:33.895Z,53.10
2018-03-19T21:41:16.224Z,53.10
2018-03-19T21:43:51.315Z,53.40
2018-03-19T21:46:28.878Z,53.00
2018-03-19T21:49:05.642Z,53.00
2018-03-19T21:51:44.447Z,53.20
2018-03-19T21:54:21.175Z,53.80
2018-03-19T21:56:57.483Z,54.30
2018-03-19T21:59:40.230Z,54.30
2018-03-19T22:02:17.416Z,54.50
2018-03-19T22:04:54.997Z,54.50
2018-03-19T22:07:32.611Z,54.60
2018-03-19T22:10:11.617Z,54.70
2018-03-19T22:12:46.869Z,55.20
2018-03-19T22:15:23.605Z,55.70
2018-03-19T22:18:01.169Z,55.80
2018-03-19T22:20:40.669Z,55.80
2018-03-19T22:23:18.002Z,55.80
2018-03-19T22:25:58.129Z,56.00
2018-03-19T22:28:34.339Z,56.60
2018-03-19T22:31:09.608Z,56.50
2018-03-19T22:33:44.722Z,56.60
2018-03-19T22:36:22.075Z,56.60
2018-03-19T22:38:58.212Z,56.70
2018-03-19T22:41:34.003Z,56.70
2018-03-19T22:44:10.406Z,56.50
2018-03-19T22:46:48.321Z,56.60
2018-03-19T22:49:25.642Z,56.90
2018-03-19T22:52:03.878Z,56.70
2018-03-19T22:54:39.449Z,57.10
2018-03-19T22:57:16.477Z,56.90
2018-03-19T22:59:53.133Z,56.90
2018-03-19T23:02:31.714Z,56.90
2018-03-19T23:05:13.336Z,57.40
2018-03-19T23:07:51.451Z,58.30
2018-03-19T23:10:30.654Z,58.40
2018-03-19T23:13:06.431Z,58.30
2018-03-19T23:15:45.204Z,58.90
2018-03-19T23:18:20.816Z,58.80
2018-03-19T23:20:55.618Z,58.80
2018-03-19T23:23:31.114Z,59.20
2018-03-19T23:26:06.109Z,59.50
2018-03-19T23:28:41.149Z,59.80
2018-03-19T23:31:18.503Z,59.70
2018-03-19T23:33:53.404Z,59.70
2018-03-19T23:36:30.020Z,59.80
2018-03-19T23:39:06.525Z,59.50
2018-03-19T23:41:45.065Z,59.50
2018-03-19T23:44:23.360Z,59.50
2018-03-19T23:46:59.481Z,59.30
2018-03-19T23:49:30.111Z,59.30
2018-03-19T23:52:06.001Z,59.30
2018-03-19T23:54:43.953Z,59.40
2018-03-19T23:57:22.689Z,59.70
2018-03-19T23:59:59.649Z,60.00
